createdAt,value
2019-06-07T00:00:54.495Z,35.95
2019-06-07T00:03:29.691Z,35.48
2019-06-07T00:05:54.076Z,35.17
2019-06-07T00:08:28.402Z,33.55
2019-06-07T00:10:53.491Z,36.35
2019-06-07T00:13:22.344Z,37.28
2019-06-07T00:15:51.226Z,39.42
2019-06-07T00:18:25.646Z,38.35
2019-06-07T00:20:50.648Z,36.55
2019-06-07T00:23:22.195Z,36.10
2019-06-07T00:25:50.068Z,37.55
2019-06-07T00:28:20.144Z,38.78
2019-06-07T00:30:52.256Z,39.50
2019-06-07T00:33:24.076Z,39.13
2019-06-07T00:35:50.486Z,38.35
2019-06-07T00:38:21.769Z,36.50
2019-06-07T00:40:49.894Z,37.48
2019-06-07T00:43:24.825Z,35.45
2019-06-07T00:45:49.306Z,36.13
2019-06-07T00:48:28.287Z,35.65
2019-06-07T00:50:48.755Z,35.63
2019-06-07T00:53:28.627Z,35.70
2019-06-07T00:55:48.486Z,33.98
2019-06-07T00:58:21.100Z,34.20
2019-06-07T01:00:49.228Z,34.20
2019-06-07T01:03:21.992Z,33.88
2019-06-07T01:05:48.654Z,35.90
2019-06-07T01:08:20.022Z,34.53
2019-06-07T01:10:53.551Z,33.78
2019-06-07T01:13:19.455Z,34.98
2019-06-07T01:15:49.198Z,34.15
2019-06-07T01:18:38.295Z,34.25
2019-06-07T01:20:48.694Z,32.23
2019-06-07T01:23:54.292Z,32.70
2019-06-07T01:25:49.082Z,32.13
2019-06-07T01:28:22.403Z,32.45
2019-06-07T01:30:48.508Z,34.63
2019-06-07T01:33:18.333Z,33.53
2019-06-07T01:35:48.275Z,31.62
2019-06-07T01:38:21.165Z,30.23
2019-06-07T01:40:47.703Z,29.90
2019-06-07T01:43:17.000Z,31.60
2019-06-07T01:45:46.004Z,33.08
2019-06-07T01:48:17.659Z,31.87
2019-06-07T01:50:45.959Z,31.85
2019-06-07T01:53:15.291Z,27.05
2019-06-07T01:55:44.391Z,25.77
2019-06-07T01:58:13.251Z,27.15
2019-06-07T02:00:42.187Z,25.10
2019-06-07T02:03:11.044Z,25.88
2019-06-07T02:05:39.915Z,26.33
2019-06-07T02:08:08.771Z,24.30
2019-06-07T02:10:37.631Z,25.45
2019-06-07T02:13:06.507Z,25.90
2019-06-07T02:15:36.599Z,25.85
2019-06-07T02:18:05.802Z,25.85
2019-06-07T02:20:34.806Z,25.37
2019-06-07T02:23:03.706Z,26.30
2019-06-07T02:25:43.807Z,25.75
2019-06-07T02:28:26.669Z,25.85
2019-06-07T02:30:47.393Z,26.05
2019-06-07T02:33:04.309Z,25.82
2019-06-07T02:35:39.947Z,25.68
2019-06-07T02:38:04.061Z,25.95
2019-06-07T02:40:37.161Z,25.77
2019-06-07T02:43:03.564Z,26.30
2019-06-07T02:45:42.032Z,30.62
2019-06-07T02:48:02.983Z,29.25
2019-06-07T02:50:38.348Z,28.57
2019-06-07T02:53:03.987Z,28.35
2019-06-07T02:55:44.417Z,28.90
2019-06-07T02:58:03.420Z,28.27
2019-06-07T03:01:00.061Z,28.87
2019-06-07T03:03:13.736Z,27.65
2019-06-07T03:05:43.340Z,29.80
2019-06-07T03:08:15.861Z,24.32
2019-06-07T03:10:46.256Z,23.02
2019-06-07T03:13:19.572Z,25.92
2019-06-07T03:15:50.542Z,27.27
2019-06-07T03:18:29.053Z,28.87
2019-06-07T03:21:05.165Z,32.75
2019-06-07T03:23:31.989Z,33.90
2019-06-07T03:25:59.942Z,32.60
2019-06-07T03:28:30.172Z,38.33
2019-06-07T03:31:02.587Z,37.25
2019-06-07T03:33:33.418Z,37.53
2019-06-07T03:36:13.035Z,37.55
2019-06-07T03:38:33.185Z,33.18
2019-06-07T03:41:02.099Z,32.10
2019-06-07T03:43:35.028Z,32.88
2019-06-07T03:46:01.571Z,30.70
2019-06-07T03:48:32.281Z,29.25
2019-06-07T03:51:04.625Z,28.87
2019-06-07T03:53:32.762Z,28.87
2019-06-07T03:56:02.744Z,29.10
2019-06-07T03:58:37.909Z,33.48
2019-06-07T04:01:02.485Z,36.00
2019-06-07T04:03:41.770Z,35.83
2019-06-07T04:06:01.900Z,37.98
2019-06-07T04:08:33.546Z,37.38
2019-06-07T04:11:01.336Z,38.67
2019-06-07T04:13:34.292Z,40.15
2019-06-07T04:16:01.043Z,37.95
2019-06-07T04:18:30.564Z,41.20
2019-06-07T04:20:59.644Z,40.40
2019-06-07T04:23:32.365Z,39.30
2019-06-07T04:25:59.807Z,37.85
2019-06-07T04:29:15.582Z,36.03
2019-06-07T04:30:59.531Z,36.58
2019-06-07T04:33:28.749Z,34.98
2019-06-07T04:35:58.801Z,36.10
2019-06-07T04:38:29.512Z,32.98
2019-06-07T04:40:59.572Z,35.88
2019-06-07T04:43:30.228Z,34.83
2019-06-07T04:46:01.004Z,34.73
2019-06-07T04:48:32.759Z,34.70
2019-06-07T04:51:01.694Z,36.25
2019-06-07T04:53:34.424Z,38.28
2019-06-07T04:56:01.672Z,37.48
2019-06-07T04:58:31.481Z,38.02
2019-06-07T05:01:03.680Z,36.10
2019-06-07T05:03:37.041Z,40.58
2019-06-07T05:06:03.922Z,35.83
2019-06-07T05:08:35.137Z,35.30
2019-06-07T05:11:03.415Z,32.73
2019-06-07T05:13:35.826Z,34.60
2019-06-07T05:16:03.984Z,33.05
2019-06-07T05:18:35.571Z,30.10
2019-06-07T05:21:03.455Z,32.05
2019-06-07T05:26:03.170Z,30.32
2019-06-07T05:28:32.644Z,31.65
2019-06-07T05:31:05.069Z,28.70
2019-06-07T05:33:35.515Z,28.75
2019-06-07T05:36:02.995Z,30.25
2019-06-07T05:38:33.379Z,29.42
2019-06-07T05:41:02.652Z,27.62
2019-06-07T05:43:34.912Z,26.95
2019-06-07T05:46:02.190Z,28.17
2019-06-07T05:48:31.788Z,27.13
2019-06-07T05:51:01.036Z,27.37
2019-06-07T05:53:31.715Z,25.52
2019-06-07T05:56:00.716Z,25.15
2019-06-07T05:58:29.578Z,26.55
2019-06-07T06:01:40.797Z,25.37
2019-06-07T06:03:29.018Z,25.55
2019-06-07T06:05:58.112Z,24.47
2019-06-07T06:08:26.967Z,22.98
2019-06-07T06:10:55.844Z,22.73
2019-06-07T06:13:24.977Z,20.65
2019-06-07T06:16:01.419Z,21.25
2019-06-07T06:18:24.407Z,17.10
2019-06-07T06:21:15.704Z,17.73
2019-06-07T06:23:25.235Z,13.30
2019-06-07T06:25:57.337Z,12.80
2019-06-07T06:28:25.163Z,12.33
2019-06-07T06:30:54.031Z,12.20
2019-06-07T06:33:33.756Z,11.05
2019-06-07T06:35:53.479Z,11.00
2019-06-07T06:38:22.391Z,11.10
2019-06-07T06:41:11.742Z,10.20
2019-06-07T06:43:21.879Z,9.60
2019-06-07T06:45:50.858Z,9.10
2019-06-07T06:48:19.956Z,9.00
2019-06-07T06:50:52.229Z,8.70
2019-06-07T06:53:19.379Z,8.58
2019-06-07T06:55:51.125Z,9.45
2019-06-07T06:58:18.812Z,8.05
2019-06-07T07:01:05.752Z,8.20
2019-06-07T07:05:54.663Z,8.10
2019-06-07T07:08:21.703Z,8.63
2019-06-07T07:10:53.112Z,8.98
2019-06-07T07:13:22.404Z,8.60
2019-06-07T07:15:57.591Z,8.15
2019-06-07T07:18:21.832Z,8.73
2019-06-07T07:20:55.707Z,8.85
2019-06-07T07:23:21.513Z,10.55
2019-06-07T07:25:55.376Z,11.40
2019-06-07T07:28:21.178Z,12.70
2019-06-07T07:30:56.384Z,12.80
2019-06-07T07:33:22.073Z,14.35
2019-06-07T07:36:15.654Z,13.50
2019-06-07T07:38:21.801Z,13.15
2019-06-07T07:41:13.303Z,14.50
2019-06-07T07:43:21.689Z,14.63
2019-06-07T07:45:54.982Z,13.90
2019-06-07T07:48:22.245Z,13.45
2019-06-07T07:50:56.224Z,13.53
2019-06-07T07:53:22.185Z,14.20
2019-06-07T07:55:54.977Z,13.30
2019-06-07T07:58:22.815Z,13.35
2019-06-07T08:01:00.170Z,12.75
2019-06-07T08:03:23.210Z,12.73
2019-06-07T08:05:54.923Z,11.80
2019-06-07T08:08:22.625Z,11.80
2019-06-07T08:10:55.388Z,12.13
2019-06-07T08:13:26.551Z,12.63
2019-06-07T08:15:58.624Z,12.82
2019-06-07T08:18:23.745Z,11.57
2019-06-07T08:21:17.198Z,11.65
2019-06-07T08:23:23.403Z,11.35
2019-06-07T08:25:56.389Z,10.98
2019-06-07T08:28:22.839Z,10.70
2019-06-07T08:30:58.349Z,10.63
2019-06-07T08:33:26.893Z,12.30
2019-06-07T08:38:30.685Z,9.78
2019-06-07T08:40:59.101Z,8.98
2019-06-07T08:43:24.733Z,9.90
2019-06-07T08:46:00.899Z,8.83
2019-06-07T08:48:28.108Z,8.60
2019-06-07T08:51:00.843Z,9.15
2019-06-07T08:53:25.490Z,10.40
2019-06-07T08:56:00.778Z,10.25
2019-06-07T08:58:24.899Z,8.38
2019-06-07T09:00:57.404Z,7.22
2019-06-07T09:03:24.555Z,8.83
2019-06-07T09:05:54.163Z,8.30
2019-06-07T09:08:30.278Z,7.40
2019-06-07T09:10:56.497Z,7.53
2019-06-07T09:13:25.303Z,7.72
2019-06-07T09:15:55.962Z,7.50
2019-06-07T09:18:41.361Z,8.30
2019-06-07T09:20:57.461Z,8.50
2019-06-07T09:23:25.806Z,7.65
2019-06-07T09:26:04.874Z,7.72
2019-06-07T09:28:25.751Z,7.83
2019-06-07T09:30:57.097Z,8.05
2019-06-07T09:33:25.392Z,7.10
2019-06-07T09:35:54.321Z,7.70
2019-06-07T09:38:26.105Z,8.03
2019-06-07T09:40:53.971Z,7.15
2019-06-07T09:45:53.393Z,8.50
2019-06-07T09:49:09.231Z,8.15
2019-06-07T09:50:52.820Z,7.92
2019-06-07T09:53:23.431Z,7.47
2019-06-07T09:55:52.468Z,7.00
2019-06-07T10:00:52.115Z,6.47
2019-06-07T10:03:22.547Z,7.58
2019-06-07T10:05:51.747Z,7.40
2019-06-07T10:09:26.255Z,6.30
2019-06-07T10:10:51.469Z,6.85
2019-06-07T10:13:21.056Z,6.25
2019-06-07T10:15:49.892Z,6.72
2019-06-07T10:18:18.976Z,6.08
2019-06-07T10:20:47.835Z,6.40
2019-06-07T10:23:16.698Z,5.62
2019-06-07T10:25:45.563Z,6.28
2019-06-07T10:28:14.447Z,5.45
2019-06-07T10:30:43.295Z,6.28
2019-06-07T10:33:12.163Z,5.90
2019-06-07T10:35:41.247Z,6.65
2019-06-07T10:38:10.729Z,5.85
2019-06-07T10:40:39.815Z,5.50
2019-06-07T10:43:09.105Z,7.20
2019-06-07T10:45:38.917Z,5.30
2019-06-07T10:48:08.001Z,5.60
2019-06-07T10:50:36.901Z,5.70
2019-06-07T10:53:06.464Z,5.62
2019-06-07T10:55:35.332Z,5.35
2019-06-07T10:58:04.736Z,4.60
2019-06-07T11:00:33.819Z,5.70
2019-06-07T11:03:03.630Z,5.25
2019-06-07T11:05:32.532Z,5.55
2019-06-07T11:08:01.607Z,5.95
2019-06-07T11:10:30.476Z,5.20
2019-06-07T11:12:59.327Z,5.03
2019-06-07T11:15:28.423Z,6.20
2019-06-07T11:17:57.285Z,6.05
2019-06-07T11:20:26.140Z,6.33
2019-06-07T11:22:54.996Z,5.53
2019-06-07T11:25:23.851Z,5.80
2019-06-07T11:27:52.710Z,4.97
2019-06-07T11:30:21.714Z,5.28
2019-06-07T11:32:50.708Z,5.78
2019-06-07T11:35:19.884Z,5.75
2019-06-07T11:37:48.754Z,5.25
2019-06-07T11:40:30.827Z,6.17
2019-06-07T11:42:48.231Z,6.22
2019-06-07T11:45:18.124Z,5.33
2019-06-07T11:47:47.219Z,5.15
2019-06-07T11:50:17.575Z,5.55
2019-06-07T11:52:46.749Z,5.33
2019-06-07T11:55:16.045Z,5.90
2019-06-07T11:57:45.075Z,5.17
2019-06-07T12:00:18.218Z,4.72
2019-06-07T12:02:47.656Z,6.00
2019-06-07T12:05:19.792Z,5.25
2019-06-07T12:07:47.655Z,5.80
2019-06-07T12:10:21.203Z,5.10
2019-06-07T12:12:47.467Z,5.87
2019-06-07T12:15:17.296Z,5.42
2019-06-07T12:17:46.563Z,5.58
2019-06-07T12:20:17.424Z,5.00
2019-06-07T12:22:46.519Z,5.37
2019-06-07T12:25:20.671Z,5.45
2019-06-07T12:27:46.832Z,5.22
2019-06-07T12:30:25.423Z,5.55
2019-06-07T12:32:48.231Z,5.05
2019-06-07T12:35:17.805Z,4.35
2019-06-07T12:37:47.119Z,4.50
2019-06-07T12:40:26.559Z,5.83
2019-06-07T12:42:46.760Z,4.95
2019-06-07T12:45:36.620Z,5.08
2019-06-07T12:47:46.469Z,5.72
2019-06-07T12:50:17.312Z,5.08
2019-06-07T12:52:46.420Z,5.33
2019-06-07T12:55:16.033Z,4.80
2019-06-07T12:57:47.662Z,4.78
2019-06-07T13:00:18.208Z,4.80
2019-06-07T13:02:47.715Z,5.60
2019-06-07T13:05:17.919Z,5.67
2019-06-07T13:07:47.924Z,5.47
2019-06-07T13:10:17.904Z,5.58
2019-06-07T13:12:47.161Z,4.80
2019-06-07T13:15:18.793Z,5.50
2019-06-07T13:17:46.839Z,4.97
2019-06-07T13:20:16.176Z,5.12
2019-06-07T13:22:45.108Z,5.47
2019-06-07T13:25:16.194Z,5.42
2019-06-07T13:27:45.488Z,5.65
2019-06-07T13:30:14.502Z,4.97
2019-06-07T13:32:43.368Z,5.03
2019-06-07T13:35:12.817Z,5.00
2019-06-07T13:37:42.168Z,5.17
2019-06-07T13:40:11.193Z,5.15
2019-06-07T13:42:40.062Z,5.28
2019-06-07T13:45:08.981Z,4.97
2019-06-07T13:47:38.137Z,5.30
2019-06-07T13:50:07.652Z,5.00
2019-06-07T13:52:37.610Z,5.03
2019-06-07T13:55:06.738Z,4.90
2019-06-07T13:57:35.859Z,4.83
2019-06-07T14:00:10.668Z,5.42
2019-06-07T14:02:37.199Z,5.30
2019-06-07T14:05:07.041Z,5.10
2019-06-07T14:07:35.891Z,5.62
2019-06-07T14:10:06.083Z,5.25
2019-06-07T14:12:34.945Z,5.53
2019-06-07T14:15:04.759Z,4.92
2019-06-07T14:17:33.632Z,4.97
2019-06-07T14:20:03.031Z,4.83
2019-06-07T14:22:32.087Z,5.20
2019-06-07T14:25:01.263Z,4.75
2019-06-07T14:27:31.830Z,5.30
2019-06-07T14:30:00.799Z,4.53
2019-06-07T14:32:30.939Z,4.92
2019-06-07T14:35:00.323Z,5.10
2019-06-07T14:37:29.188Z,4.97
2019-06-07T14:39:58.042Z,5.70
2019-06-07T14:42:27.118Z,5.30
2019-06-07T14:44:56.028Z,5.60
2019-06-07T14:47:26.057Z,5.15
2019-06-07T14:49:54.935Z,5.22
2019-06-07T14:52:24.412Z,5.28
2019-06-07T14:54:53.418Z,7.55
2019-06-07T14:57:22.298Z,9.23
2019-06-07T14:59:51.417Z,5.03
2019-06-07T15:02:20.287Z,5.72
2019-06-07T15:04:49.135Z,6.20
2019-06-07T15:07:17.986Z,5.47
2019-06-07T15:09:46.836Z,5.00
2019-06-07T15:12:24.676Z,5.40
2019-06-07T15:14:46.632Z,5.15
2019-06-07T15:17:15.511Z,5.33
2019-06-07T15:19:44.417Z,4.85
2019-06-07T15:22:13.529Z,5.15
2019-06-07T15:24:42.371Z,4.95
2019-06-07T15:27:11.309Z,5.05
2019-06-07T15:29:40.155Z,5.00
2019-06-07T15:32:09.012Z,4.90
2019-06-07T15:34:38.384Z,5.30
2019-06-07T15:37:07.383Z,4.60
2019-06-07T15:39:37.310Z,5.08
2019-06-07T15:42:06.180Z,4.72
2019-06-07T15:44:35.417Z,5.28
2019-06-07T15:47:04.607Z,5.30
2019-06-07T15:49:34.162Z,5.08
2019-06-07T15:52:03.083Z,4.78
2019-06-07T15:54:32.240Z,5.20
2019-06-07T15:57:01.160Z,4.83
2019-06-07T15:59:31.012Z,4.92
2019-06-07T16:01:59.950Z,5.28
2019-06-07T16:04:28.795Z,5.33
2019-06-07T16:06:57.698Z,5.30
2019-06-07T16:09:26.516Z,5.30
2019-06-07T16:11:55.363Z,5.33
2019-06-07T16:14:25.297Z,6.25
2019-06-07T16:16:54.132Z,6.10
2019-06-07T16:19:23.309Z,6.17
2019-06-07T16:21:52.152Z,5.85
2019-06-07T16:24:21.415Z,5.67
2019-06-07T16:26:50.244Z,6.22
2019-06-07T16:29:19.095Z,5.80
2019-06-07T16:31:47.938Z,6.05
2019-06-07T16:34:16.792Z,5.60
2019-06-07T16:36:46.967Z,5.72
2019-06-07T16:39:15.963Z,6.00
2019-06-07T16:41:45.018Z,6.28
2019-06-07T16:44:13.959Z,6.47
2019-06-07T16:46:42.977Z,6.22
2019-06-07T16:49:11.947Z,6.17
2019-06-07T16:51:41.330Z,6.55
2019-06-07T16:54:10.315Z,7.12
2019-06-07T16:56:44.424Z,7.28
2019-06-07T16:59:09.720Z,6.20
2019-06-07T17:01:39.212Z,5.42
2019-06-07T17:04:08.128Z,4.95
2019-06-07T17:06:37.595Z,5.60
2019-06-07T17:09:07.479Z,5.22
2019-06-07T17:11:36.368Z,5.70
2019-06-07T17:14:05.203Z,4.80
2019-06-07T17:16:34.096Z,4.75
2019-06-07T17:19:03.027Z,4.87
2019-06-07T17:21:32.119Z,4.67
2019-06-07T17:24:01.020Z,4.10
2019-06-07T17:26:29.916Z,2.47
2019-06-07T17:29:00.003Z,1.40
2019-06-07T17:31:28.864Z,1.50
2019-06-07T17:33:57.715Z,1.30
2019-06-07T17:36:26.568Z,1.22
2019-06-07T17:38:55.663Z,1.00
2019-06-07T17:41:24.528Z,1.30
2019-06-07T17:44:00.016Z,1.32
2019-06-07T17:46:24.163Z,1.22
2019-06-07T17:48:53.029Z,1.42
2019-06-07T17:51:22.115Z,1.57
2019-06-07T17:53:52.051Z,1.35
2019-06-07T17:56:21.007Z,2.47
2019-06-07T17:58:50.519Z,1.70
2019-06-07T18:01:19.515Z,1.50
2019-06-07T18:03:49.167Z,2.90
2019-06-07T18:06:18.663Z,2.20
2019-06-07T18:08:47.791Z,1.47
2019-06-07T18:11:16.647Z,1.60
2019-06-07T18:13:46.004Z,1.40
2019-06-07T18:16:15.613Z,1.20
2019-06-07T18:18:44.519Z,1.40
2019-06-07T18:21:13.404Z,1.20
2019-06-07T18:23:42.260Z,1.15
2019-06-07T18:26:11.115Z,1.05
2019-06-07T18:28:39.985Z,1.27
2019-06-07T18:31:09.063Z,1.65
2019-06-07T18:33:37.933Z,1.42
2019-06-07T18:36:06.812Z,1.15
2019-06-07T18:38:35.664Z,1.12
2019-06-07T18:41:04.516Z,0.88
2019-06-07T18:43:33.375Z,1.20
2019-06-07T18:46:02.230Z,1.10
2019-06-07T18:48:31.076Z,1.10
2019-06-07T18:50:59.930Z,1.00
2019-06-07T18:53:28.830Z,1.05
2019-06-07T18:55:58.119Z,0.90
2019-06-07T18:58:27.219Z,1.00
2019-06-07T19:00:56.088Z,1.20
2019-06-07T19:03:24.934Z,1.00
2019-06-07T19:05:54.266Z,1.22
2019-06-07T19:08:23.241Z,0.90
2019-06-07T19:10:52.651Z,0.98
2019-06-07T19:13:21.912Z,0.70
2019-06-07T19:15:51.818Z,0.80
2019-06-07T19:18:20.677Z,0.75
2019-06-07T19:20:50.613Z,0.80
2019-06-07T19:23:19.924Z,0.85
2019-06-07T19:25:50.074Z,0.90
2019-06-07T19:28:19.253Z,0.95
2019-06-07T19:30:48.110Z,0.90
2019-06-07T19:33:16.963Z,0.90
2019-06-07T19:35:46.139Z,0.80
2019-06-07T19:38:16.960Z,0.90
2019-06-07T19:40:45.561Z,0.90
2019-06-07T19:43:14.643Z,0.93
2019-06-07T19:45:43.743Z,1.10
2019-06-07T19:48:13.907Z,0.90
2019-06-07T19:50:42.776Z,0.90
2019-06-07T19:53:11.659Z,1.00
2019-06-07T19:55:40.539Z,0.80
2019-06-07T19:58:09.396Z,0.70
2019-06-07T20:00:38.244Z,1.20
2019-06-07T20:03:07.095Z,1.75
2019-06-07T20:05:35.959Z,0.90
2019-06-07T20:08:05.051Z,1.00
2019-06-07T20:10:34.028Z,1.00
2019-06-07T20:13:03.047Z,1.00
2019-06-07T20:15:32.134Z,1.00
2019-06-07T20:18:01.335Z,1.22
2019-06-07T20:20:30.633Z,1.00
2019-06-07T20:23:00.825Z,1.00
2019-06-07T20:25:29.907Z,1.30
2019-06-07T20:27:59.638Z,0.80
2019-06-07T20:30:28.716Z,1.00
2019-06-07T20:32:57.883Z,0.80
2019-06-07T20:35:26.771Z,1.10
2019-06-07T20:37:56.802Z,0.93
2019-06-07T20:40:25.701Z,1.00
2019-06-07T20:42:54.556Z,1.02
2019-06-07T20:45:33.279Z,1.20
2019-06-07T20:47:54.075Z,1.00
2019-06-07T20:50:23.249Z,1.42
2019-06-07T20:52:52.121Z,0.93
2019-06-07T20:55:21.349Z,1.10
2019-06-07T20:57:50.199Z,1.10
2019-06-07T21:00:22.172Z,1.20
2019-06-07T21:02:55.972Z,1.27
2019-06-07T21:11:36.799Z,1.10
2019-06-07T21:14:06.126Z,1.30
2019-06-07T21:16:35.035Z,1.40
2019-06-07T21:19:04.221Z,1.20
2019-06-07T21:21:33.799Z,1.30
2019-06-07T21:24:03.072Z,1.15
2019-06-07T21:26:31.924Z,1.22
2019-06-07T21:29:01.321Z,1.15
2019-06-07T21:31:31.328Z,1.20
2019-06-07T21:34:01.348Z,1.10
2019-06-07T21:36:30.481Z,1.40
2019-06-07T21:38:59.342Z,1.05
2019-06-07T21:41:28.196Z,1.10
2019-06-07T21:43:57.084Z,1.30
2019-06-07T21:46:25.944Z,1.12
2019-06-07T21:48:55.169Z,1.30
2019-06-07T21:51:24.033Z,1.32
2019-06-07T21:53:52.885Z,1.60
2019-06-07T21:56:21.761Z,1.40
2019-06-07T21:58:50.876Z,1.27
2019-06-07T22:01:20.808Z,1.57
2019-06-07T22:03:49.682Z,1.42
2019-06-07T22:06:18.837Z,1.45
2019-06-07T22:08:48.676Z,1.40
2019-06-07T22:11:17.528Z,1.55
2019-06-07T22:13:46.392Z,1.50
2019-06-07T22:16:26.802Z,1.40
2019-06-07T22:18:45.953Z,1.55
2019-06-07T22:21:15.048Z,1.50
2019-06-07T22:23:44.001Z,1.60
2019-06-07T22:26:13.255Z,1.22
2019-06-07T22:28:42.209Z,1.30
2019-06-07T22:31:11.072Z,1.52
2019-06-07T22:33:39.944Z,1.50
2019-06-07T22:36:08.955Z,1.60
2019-06-07T22:38:37.940Z,1.70
2019-06-07T22:41:07.317Z,1.60
2019-06-07T22:43:36.709Z,1.60
2019-06-07T22:46:06.758Z,1.85
2019-06-07T22:48:35.679Z,2.02
2019-06-07T22:51:07.717Z,2.20
2019-06-07T22:53:38.425Z,1.60
2019-06-07T22:56:11.944Z,1.80
2019-06-07T22:58:40.843Z,1.60
2019-06-07T23:01:10.374Z,1.40
2019-06-07T23:03:39.235Z,1.40
2019-06-07T23:06:08.481Z,1.30
2019-06-07T23:08:37.765Z,1.12
2019-06-07T23:11:06.698Z,1.30
2019-06-07T23:13:35.560Z,1.15
2019-06-07T23:16:04.793Z,1.20
2019-06-07T23:18:33.620Z,1.47
2019-06-07T23:21:02.592Z,1.10
2019-06-07T23:23:31.741Z,1.15
2019-06-07T23:26:00.625Z,1.30
2019-06-07T23:28:30.451Z,1.10
2019-06-07T23:30:59.523Z,1.30
2019-06-07T23:33:28.381Z,0.90
2019-06-07T23:35:57.249Z,1.10
2019-06-07T23:38:26.113Z,1.20
2019-06-07T23:40:54.967Z,1.40
2019-06-07T23:43:23.839Z,0.90
2019-06-07T23:45:52.717Z,0.90
2019-06-07T23:48:21.685Z,1.17
2019-06-07T23:50:53.305Z,0.95
2019-06-07T23:53:22.263Z,1.30
2019-06-07T23:55:51.315Z,0.95
2019-06-07T23:58:20.618Z,1.02
